createdAt,value
2023-02-18T00:01:39.558Z,5.40
2023-02-18T00:04:06.928Z,5.30
2023-02-18T00:06:36.232Z,5.10
2023-02-18T00:09:05.074Z,5.00
2023-02-18T00:11:35.077Z,4.70
2023-02-18T00:14:04.710Z,4.80
2023-02-18T00:16:33.346Z,4.90
2023-02-18T00:19:03.354Z,4.90
2023-02-18T00:21:32.173Z,4.70
2023-02-18T00:23:59.969Z,4.70
2023-02-18T00:26:27.632Z,4.60
2023-02-18T00:28:55.091Z,4.70
2023-02-18T00:31:29.811Z,4.60
2023-02-18T00:34:00.528Z,4.50
2023-02-18T00:36:29.466Z,4.40
2023-02-18T00:39:00.296Z,4.30
2023-02-18T00:41:29.298Z,4.40
2023-02-18T00:43:57.820Z,4.40
2023-02-18T00:46:26.497Z,4.20
2023-02-18T00:48:54.949Z,4.30
2023-02-18T00:51:23.762Z,4.30
2023-02-18T00:53:51.543Z,4.30
2023-02-18T00:56:19.633Z,4.40
2023-02-18T00:58:47.436Z,4.50
2023-02-18T01:01:14.933Z,4.70
2023-02-18T01:03:43.585Z,4.60
2023-02-18T01:06:12.402Z,4.50
2023-02-18T01:08:41.527Z,4.30
2023-02-18T01:11:11.520Z,4.20
2023-02-18T01:13:39.587Z,4.20
2023-02-18T01:16:08.595Z,4.30
2023-02-18T01:18:37.046Z,4.30
2023-02-18T01:21:08.524Z,4.10
2023-02-18T01:23:42.535Z,4.10
2023-02-18T01:26:11.020Z,4.10
2023-02-18T01:28:40.791Z,4.00
2023-02-18T01:31:10.920Z,4.00
2023-02-18T01:33:38.986Z,4.10
2023-02-18T01:36:07.451Z,4.10
2023-02-18T01:38:35.728Z,3.90
2023-02-18T01:41:03.807Z,3.70
2023-02-18T01:43:31.527Z,3.70
2023-02-18T01:46:06.114Z,3.60
2023-02-18T01:48:38.049Z,3.70
2023-02-18T01:51:32.264Z,4.00
2023-02-18T01:54:06.627Z,4.10
2023-02-18T01:56:40.919Z,4.30
2023-02-18T01:59:13.346Z,4.40
2023-02-18T02:01:43.753Z,4.50
2023-02-18T02:04:12.000Z,4.30
2023-02-18T02:06:41.669Z,4.10
2023-02-18T02:09:13.126Z,4.00
2023-02-18T02:11:46.755Z,3.90
2023-02-18T02:14:37.852Z,3.80
2023-02-18T02:17:17.408Z,3.60
2023-02-18T02:20:16.422Z,3.60
2023-02-18T02:23:07.492Z,3.50
2023-02-18T02:25:46.782Z,3.60
2023-02-18T02:29:01.514Z,3.60
2023-02-18T02:31:41.320Z,3.50
2023-02-18T02:34:27.281Z,3.60
2023-02-18T02:36:54.643Z,3.80
2023-02-18T02:39:34.135Z,3.80
2023-02-18T02:42:21.108Z,3.90
2023-02-18T02:44:54.869Z,3.90
2023-02-18T02:47:58.415Z,3.80
2023-02-18T02:50:45.812Z,3.70
2023-02-18T02:53:24.550Z,3.50
2023-02-18T02:55:52.304Z,3.40
2023-02-18T02:58:21.208Z,3.40
2023-02-18T03:01:03.622Z,3.50
2023-02-18T03:03:45.814Z,3.80
2023-02-18T03:06:43.939Z,4.00
2023-02-18T03:09:25.151Z,3.90
2023-02-18T03:12:30.530Z,3.80
2023-02-18T03:15:05.471Z,3.60
2023-02-18T03:17:40.005Z,3.80
2023-02-18T03:20:13.486Z,3.70
2023-02-18T03:22:46.704Z,3.70
2023-02-18T03:25:15.886Z,3.70
2023-02-18T03:27:52.473Z,3.90
2023-02-18T03:30:31.457Z,3.90
2023-02-18T03:33:04.017Z,4.00
2023-02-18T03:35:32.111Z,3.90
2023-02-18T03:38:20.998Z,3.90
2023-02-18T03:40:48.896Z,4.00
2023-02-18T03:43:16.622Z,4.30
2023-02-18T03:45:57.121Z,4.40
2023-02-18T03:48:25.212Z,4.60
2023-02-18T03:50:53.092Z,4.50
2023-02-18T03:53:20.697Z,4.50
2023-02-18T03:55:48.163Z,4.50
2023-02-18T03:58:15.734Z,4.40
2023-02-18T04:00:43.178Z,4.40
2023-02-18T04:03:10.698Z,4.40
2023-02-18T04:05:38.118Z,4.50
2023-02-18T04:08:05.746Z,4.60
2023-02-18T04:10:33.295Z,4.40
2023-02-18T04:13:00.800Z,4.60
2023-02-18T04:15:28.215Z,4.60
2023-02-18T04:17:55.829Z,4.50
2023-02-18T04:20:23.364Z,4.40
2023-02-18T04:22:50.745Z,4.30
2023-02-18T04:25:18.318Z,4.10
2023-02-18T04:27:45.726Z,4.10
2023-02-18T04:30:13.895Z,4.10
2023-02-18T04:32:41.364Z,4.30
2023-02-18T04:35:08.929Z,4.60
2023-02-18T04:37:36.341Z,4.30
2023-02-18T04:40:04.629Z,4.50
2023-02-18T04:42:32.104Z,4.40
2023-02-18T04:44:59.554Z,4.50
2023-02-18T04:47:27.549Z,4.50
2023-02-18T04:49:54.978Z,4.50
2023-02-18T04:52:22.410Z,4.70
2023-02-18T04:54:49.976Z,4.60
2023-02-18T04:57:17.387Z,4.60
2023-02-18T04:59:44.764Z,4.30
2023-02-18T05:02:12.162Z,4.20
2023-02-18T05:04:39.567Z,4.00
2023-02-18T05:07:07.008Z,3.90
2023-02-18T05:09:34.472Z,3.80
2023-02-18T05:12:01.880Z,3.70
2023-02-18T05:14:29.256Z,3.70
2023-02-18T05:16:56.664Z,3.60
2023-02-18T05:19:24.084Z,3.70
2023-02-18T05:21:51.464Z,3.70
2023-02-18T05:24:18.865Z,3.70
2023-02-18T05:26:46.243Z,3.80
2023-02-18T05:29:13.636Z,3.80
2023-02-18T05:31:41.160Z,3.80
2023-02-18T05:34:08.769Z,3.80
2023-02-18T05:36:36.198Z,3.80
2023-02-18T05:39:03.900Z,3.80
2023-02-18T05:41:31.414Z,3.80
2023-02-18T05:44:17.301Z,3.70
2023-02-18T05:46:44.804Z,3.80
2023-02-18T05:49:12.613Z,3.80
2023-02-18T05:51:39.997Z,4.00
2023-02-18T05:54:07.416Z,3.90
2023-02-18T05:56:34.879Z,3.90
2023-02-18T05:59:02.307Z,4.20
2023-02-18T06:01:29.834Z,4.10
2023-02-18T06:03:57.327Z,4.10
2023-02-18T06:06:24.761Z,4.10
2023-02-18T06:08:52.189Z,4.10
2023-02-18T06:11:19.596Z,4.20
2023-02-18T06:13:47.243Z,4.20
2023-02-18T06:16:14.849Z,4.20
2023-02-18T06:18:42.307Z,4.20
2023-02-18T06:21:09.692Z,4.20
2023-02-18T06:23:37.132Z,4.30
2023-02-18T06:26:04.782Z,4.30
2023-02-18T06:28:32.197Z,4.30
2023-02-18T06:30:59.595Z,4.30
2023-02-18T06:33:27.081Z,4.30
2023-02-18T06:36:00.003Z,4.60
2023-02-18T06:38:27.882Z,4.60
2023-02-18T06:40:55.341Z,4.70
2023-02-18T06:43:22.734Z,4.70
2023-02-18T06:45:50.251Z,4.70
2023-02-18T06:48:17.688Z,4.70
2023-02-18T06:50:45.459Z,4.70
2023-02-18T06:53:13.227Z,4.60
2023-02-18T06:55:41.808Z,4.70
2023-02-18T06:58:10.603Z,4.80
2023-02-18T07:00:38.336Z,4.70
2023-02-18T07:03:06.296Z,4.90
2023-02-18T07:05:33.721Z,5.00
2023-02-18T07:08:01.479Z,5.10
2023-02-18T07:10:29.051Z,5.00
2023-02-18T07:12:56.501Z,5.10
2023-02-18T07:15:24.491Z,5.10
2023-02-18T07:17:52.242Z,5.20
2023-02-18T07:20:21.202Z,5.20
2023-02-18T07:22:48.896Z,5.20
2023-02-18T07:25:16.516Z,5.20
2023-02-18T07:27:43.963Z,5.20
2023-02-18T07:30:11.830Z,5.10
2023-02-18T07:32:40.291Z,5.20
2023-02-18T07:35:07.884Z,5.10
2023-02-18T07:37:35.332Z,5.30
2023-02-18T07:40:03.264Z,5.40
2023-02-18T07:42:30.703Z,5.20
2023-02-18T07:44:58.208Z,5.20
2023-02-18T07:47:25.662Z,5.30
2023-02-18T07:49:53.015Z,5.60
2023-02-18T07:52:20.398Z,5.60
2023-02-18T07:54:47.890Z,5.60
2023-02-18T07:57:15.516Z,5.60
2023-02-18T07:59:43.023Z,5.70
2023-02-18T08:02:20.322Z,5.70
2023-02-18T08:04:48.499Z,5.70
2023-02-18T08:07:18.497Z,5.70
2023-02-18T08:09:45.981Z,5.60
2023-02-18T08:12:13.543Z,5.60
2023-02-18T08:14:41.924Z,5.70
2023-02-18T08:17:09.387Z,5.90
2023-02-18T08:19:36.841Z,6.00
2023-02-18T08:22:04.502Z,6.10
2023-02-18T08:24:31.912Z,6.30
2023-02-18T08:27:01.416Z,6.30
2023-02-18T08:29:29.872Z,6.30
2023-02-18T08:31:58.163Z,6.20
2023-02-18T08:34:26.353Z,6.30
2023-02-18T08:36:53.880Z,6.40
2023-02-18T08:39:21.325Z,6.30
2023-02-18T08:41:48.694Z,6.40
2023-02-18T08:44:16.099Z,6.50
2023-02-18T08:46:43.556Z,6.40
2023-02-18T08:49:11.028Z,6.40
2023-02-18T08:51:38.435Z,6.40
2023-02-18T08:54:06.385Z,6.40
2023-02-18T08:56:33.717Z,6.50
2023-02-18T08:59:01.097Z,6.40
2023-02-18T09:01:28.606Z,6.40
2023-02-18T09:03:56.150Z,6.50
2023-02-18T09:06:23.726Z,6.50
2023-02-18T09:08:51.450Z,6.80
2023-02-18T09:11:19.905Z,6.60
2023-02-18T09:13:47.466Z,6.80
2023-02-18T09:16:19.147Z,6.70
2023-02-18T09:18:48.267Z,6.70
2023-02-18T09:21:19.053Z,6.80
2023-02-18T09:23:46.925Z,6.80
2023-02-18T09:26:17.322Z,6.80
2023-02-18T09:28:45.045Z,6.90
2023-02-18T09:31:18.251Z,7.00
2023-02-18T09:33:48.856Z,7.00
2023-02-18T09:36:17.373Z,7.00
2023-02-18T09:38:44.928Z,6.90
2023-02-18T09:42:03.452Z,6.90
2023-02-18T09:44:36.629Z,7.10
2023-02-18T09:47:26.057Z,7.20
2023-02-18T09:49:57.741Z,7.40
2023-02-18T09:52:29.954Z,7.30
2023-02-18T09:54:57.269Z,7.30
2023-02-18T09:57:45.455Z,7.40
2023-02-18T10:00:30.554Z,7.40
2023-02-18T10:03:16.670Z,7.70
2023-02-18T10:06:17.776Z,7.90
2023-02-18T10:08:48.115Z,7.80
2023-02-18T10:11:35.420Z,7.80
2023-02-18T10:14:04.204Z,7.90
2023-02-18T10:16:31.732Z,7.90
2023-02-18T10:19:03.970Z,8.00
2023-02-18T10:21:33.321Z,8.20
2023-02-18T10:24:21.162Z,8.30
2023-02-18T10:26:49.376Z,8.30
2023-02-18T10:29:21.701Z,8.50
2023-02-18T10:32:27.553Z,8.50
2023-02-18T10:35:07.498Z,8.50
2023-02-18T10:37:52.694Z,8.60
2023-02-18T10:40:28.858Z,8.80
2023-02-18T10:43:20.311Z,8.70
2023-02-18T10:45:51.252Z,9.00
2023-02-18T10:48:46.497Z,9.00
2023-02-18T10:51:35.543Z,8.90
2023-02-18T10:54:03.025Z,8.90
2023-02-18T10:56:48.384Z,8.90
2023-02-18T10:59:27.678Z,8.90
2023-02-18T11:01:58.561Z,9.10
2023-02-18T11:04:35.679Z,9.20
2023-02-18T11:07:06.386Z,8.90
2023-02-18T11:09:51.005Z,9.10
2023-02-18T11:12:33.228Z,9.20
2023-02-18T11:15:17.908Z,9.00
2023-02-18T11:17:52.057Z,8.80
2023-02-18T11:20:25.064Z,8.60
2023-02-18T11:22:56.829Z,8.80
2023-02-18T11:25:33.538Z,9.00
2023-02-18T11:28:07.349Z,9.00
2023-02-18T11:30:40.517Z,9.10
2023-02-18T11:33:18.704Z,9.00
2023-02-18T11:35:54.778Z,9.20
2023-02-18T11:38:44.405Z,9.30
2023-02-18T11:41:19.786Z,9.40
2023-02-18T11:43:52.175Z,9.70
2023-02-18T11:46:25.584Z,9.90
2023-02-18T11:48:53.973Z,10.00
2023-02-18T11:51:33.264Z,10.10
2023-02-18T11:54:03.797Z,10.20
2023-02-18T11:56:36.185Z,10.20
2023-02-18T11:59:04.948Z,10.30
2023-02-18T12:01:47.605Z,10.10
2023-02-18T12:04:18.874Z,10.30
2023-02-18T12:07:23.831Z,10.30
2023-02-18T12:09:56.357Z,9.90
2023-02-18T12:12:28.495Z,10.10
2023-02-18T12:14:56.650Z,10.00
2023-02-18T12:17:42.403Z,10.20
2023-02-18T12:20:36.906Z,10.40
2023-02-18T12:23:31.565Z,10.40
2023-02-18T12:26:14.296Z,10.70
2023-02-18T12:28:47.407Z,10.70
2023-02-18T12:31:40.186Z,10.90
2023-02-18T12:34:33.579Z,11.20
2023-02-18T12:37:28.997Z,11.00
2023-02-18T12:40:14.289Z,10.60
2023-02-18T12:43:09.313Z,11.00
2023-02-18T12:45:39.569Z,10.90
2023-02-18T12:48:22.024Z,10.80
2023-02-18T12:50:49.318Z,11.10
2023-02-18T12:53:43.365Z,11.20
2023-02-18T12:56:16.672Z,11.40
2023-02-18T12:58:46.851Z,11.40
2023-02-18T13:01:35.736Z,11.20
2023-02-18T13:04:15.134Z,11.10
2023-02-18T13:07:10.926Z,11.30
2023-02-18T13:09:53.476Z,11.10
2023-02-18T13:12:54.687Z,11.30
2023-02-18T13:15:25.841Z,11.20
2023-02-18T13:17:58.617Z,11.30
2023-02-18T13:20:50.817Z,11.20
2023-02-18T13:23:31.334Z,11.00
2023-02-18T13:26:02.330Z,11.40
2023-02-18T13:28:46.953Z,11.30
2023-02-18T13:31:28.023Z,11.30
2023-02-18T13:33:58.544Z,11.60
2023-02-18T13:36:54.831Z,11.60
2023-02-18T13:39:24.446Z,11.40
2023-02-18T13:42:12.899Z,11.40
2023-02-18T13:44:55.320Z,11.60
2023-02-18T13:47:41.842Z,11.80
2023-02-18T13:50:25.651Z,11.80
2023-02-18T13:53:08.359Z,11.80
2023-02-18T13:55:56.009Z,11.90
2023-02-18T13:58:39.022Z,11.80
2023-02-18T14:01:12.452Z,12.00
2023-02-18T14:03:42.893Z,11.80
2023-02-18T14:06:26.288Z,12.00
2023-02-18T14:09:24.457Z,12.10
2023-02-18T14:11:57.911Z,12.00
2023-02-18T14:14:28.232Z,11.70
2023-02-18T14:17:14.136Z,12.00
2023-02-18T14:19:41.648Z,12.00
2023-02-18T14:22:44.497Z,12.00
2023-02-18T14:25:11.835Z,12.00
2023-02-18T14:27:40.544Z,12.00
2023-02-18T14:30:25.492Z,12.10
2023-02-18T14:32:57.346Z,11.80
2023-02-18T14:35:53.668Z,11.80
2023-02-18T14:38:40.953Z,11.70
2023-02-18T14:41:18.133Z,11.80
2023-02-18T14:43:48.414Z,11.70
2023-02-18T14:46:36.148Z,11.70
2023-02-18T14:49:13.645Z,11.70
2023-02-18T14:51:44.589Z,11.70
2023-02-18T14:54:19.370Z,11.60
2023-02-18T14:57:00.265Z,11.60
2023-02-18T14:59:31.497Z,11.70
2023-02-18T15:01:59.013Z,11.70
2023-02-18T15:04:27.404Z,11.70
2023-02-18T15:07:09.228Z,11.90
2023-02-18T15:09:46.748Z,11.60
2023-02-18T15:12:19.557Z,11.80
2023-02-18T15:14:49.811Z,11.80
2023-02-18T15:17:20.535Z,11.70
2023-02-18T15:19:55.456Z,11.80
2023-02-18T15:22:31.115Z,11.90
2023-02-18T15:24:58.605Z,11.70
2023-02-18T15:27:30.155Z,11.90
2023-02-18T15:30:30.794Z,11.80
2023-02-18T15:33:00.624Z,12.00
2023-02-18T15:35:32.966Z,12.00
2023-02-18T15:38:01.519Z,11.90
2023-02-18T15:40:34.976Z,11.70
2023-02-18T15:43:05.452Z,11.80
2023-02-18T15:45:38.951Z,11.70
2023-02-18T15:48:06.703Z,11.70
2023-02-18T15:50:37.854Z,11.50
2023-02-18T15:53:14.760Z,11.50
2023-02-18T15:55:46.032Z,11.30
2023-02-18T15:58:17.475Z,11.40
2023-02-18T16:00:52.220Z,11.40
2023-02-18T16:03:31.071Z,11.20
2023-02-18T16:06:22.286Z,11.20
2023-02-18T16:09:03.701Z,11.10
2023-02-18T16:11:35.863Z,11.10
2023-02-18T16:14:06.008Z,11.10
2023-02-18T16:16:39.503Z,11.10
2023-02-18T16:19:22.873Z,11.20
2023-02-18T16:21:50.280Z,11.20
2023-02-18T16:24:30.308Z,11.20
2023-02-18T16:26:59.403Z,11.10
2023-02-18T16:29:37.455Z,11.10
2023-02-18T16:32:05.139Z,11.00
2023-02-18T16:34:33.042Z,10.90
2023-02-18T16:37:19.184Z,10.90
2023-02-18T16:39:46.809Z,10.80
2023-02-18T16:42:14.397Z,10.80
2023-02-18T16:44:41.861Z,10.60
2023-02-18T16:47:15.331Z,10.60
2023-02-18T16:49:45.535Z,10.50
2023-02-18T16:52:17.162Z,10.60
2023-02-18T16:54:44.687Z,10.60
2023-02-18T16:57:12.115Z,10.50
2023-02-18T16:59:39.520Z,10.40
2023-02-18T17:02:22.332Z,10.40
2023-02-18T17:04:49.830Z,10.30
2023-02-18T17:07:17.448Z,10.30
2023-02-18T17:09:44.936Z,10.20
2023-02-18T17:12:13.411Z,10.20
2023-02-18T17:14:40.861Z,10.20
2023-02-18T17:17:18.031Z,10.10
2023-02-18T17:19:45.450Z,10.10
2023-02-18T17:22:13.878Z,10.00
2023-02-18T17:24:41.380Z,10.00
2023-02-18T17:27:11.048Z,10.00
2023-02-18T17:29:38.533Z,9.90
2023-02-18T17:32:08.124Z,9.80
2023-02-18T17:34:37.716Z,9.80
2023-02-18T17:37:05.219Z,9.80
2023-02-18T17:39:32.745Z,9.80
2023-02-18T17:42:00.180Z,9.80
2023-02-18T17:44:29.150Z,9.80
2023-02-18T17:46:56.679Z,9.70
2023-02-18T17:49:24.458Z,9.60
2023-02-18T17:51:52.657Z,9.60
2023-02-18T17:54:22.730Z,9.60
2023-02-18T17:56:50.292Z,9.50
2023-02-18T17:59:17.697Z,9.50
2023-02-18T18:01:45.220Z,9.50
2023-02-18T18:04:15.014Z,9.40
2023-02-18T18:06:43.584Z,9.50
2023-02-18T18:09:11.408Z,9.40
2023-02-18T18:11:38.987Z,9.40
2023-02-18T18:14:06.452Z,9.40
2023-02-18T18:16:33.998Z,9.40
2023-02-18T18:19:01.528Z,9.30
2023-02-18T18:21:34.588Z,9.20
2023-02-18T18:24:02.439Z,9.20
2023-02-18T18:26:30.346Z,9.10
2023-02-18T18:28:57.900Z,9.10
2023-02-18T18:31:25.497Z,9.00
2023-02-18T18:33:53.764Z,9.00
2023-02-18T18:36:24.247Z,9.00
2023-02-18T18:38:52.160Z,8.90
2023-02-18T18:41:22.688Z,8.90
2023-02-18T18:43:50.784Z,8.90
2023-02-18T18:46:18.613Z,8.80
2023-02-18T18:48:46.309Z,8.70
2023-02-18T18:51:18.208Z,8.70
2023-02-18T18:53:45.686Z,8.60
2023-02-18T18:56:13.850Z,8.70
2023-02-18T18:58:41.277Z,8.60
2023-02-18T19:01:16.138Z,8.60
2023-02-18T19:03:45.145Z,8.60
2023-02-18T19:06:14.485Z,8.60
2023-02-18T19:08:42.591Z,8.60
2023-02-18T19:11:12.958Z,8.60
2023-02-18T19:13:40.999Z,8.60
2023-02-18T19:16:16.639Z,8.60
2023-02-18T19:18:44.054Z,8.50
2023-02-18T19:21:12.442Z,8.30
2023-02-18T19:23:40.323Z,8.20
2023-02-18T19:26:08.161Z,8.10
2023-02-18T19:28:35.773Z,7.80
2023-02-18T19:31:09.719Z,7.70
2023-02-18T19:33:39.195Z,7.50
2023-02-18T19:36:11.162Z,7.40
2023-02-18T19:38:38.725Z,7.60
2023-02-18T19:41:12.343Z,7.60
2023-02-18T19:43:42.075Z,7.60
2023-02-18T19:46:11.714Z,7.50
2023-02-18T19:48:39.859Z,7.70
2023-02-18T19:51:08.754Z,7.60
2023-02-18T19:53:37.570Z,7.70
2023-02-18T19:56:07.416Z,7.90
2023-02-18T19:58:35.521Z,8.00
2023-02-18T20:01:03.792Z,8.10
2023-02-18T20:03:31.237Z,8.00
2023-02-18T20:05:58.729Z,7.40
2023-02-18T20:08:26.230Z,7.20
2023-02-18T20:10:58.047Z,7.00
2023-02-18T20:13:25.553Z,6.80
2023-02-18T20:15:52.985Z,6.60
2023-02-18T20:18:20.503Z,6.50
2023-02-18T20:20:51.371Z,6.50
2023-02-18T20:23:18.928Z,6.10
2023-02-18T20:25:47.718Z,6.10
2023-02-18T20:28:15.655Z,6.20
2023-02-18T20:30:44.221Z,6.20
2023-02-18T20:33:11.679Z,6.10
2023-02-18T20:35:39.019Z,6.00
2023-02-18T20:38:06.469Z,6.10
2023-02-18T20:40:33.943Z,6.00
2023-02-18T20:43:01.430Z,6.00
2023-02-18T20:45:28.984Z,6.00
2023-02-18T20:47:56.448Z,5.80
2023-02-18T20:50:24.144Z,6.00
2023-02-18T20:52:52.597Z,6.20
2023-02-18T20:55:20.106Z,6.10
2023-02-18T20:57:47.501Z,6.20
2023-02-18T21:00:15.440Z,6.50
2023-02-18T21:02:42.984Z,6.60
2023-02-18T21:05:10.455Z,6.70
2023-02-18T21:07:37.841Z,6.60
2023-02-18T21:10:06.599Z,6.50
2023-02-18T21:12:33.993Z,6.50
2023-02-18T21:15:01.458Z,6.40
2023-02-18T21:17:28.864Z,6.10
2023-02-18T21:19:56.264Z,6.00
2023-02-18T21:22:23.702Z,5.80
2023-02-18T21:24:51.692Z,5.80
2023-02-18T21:27:19.157Z,5.60
2023-02-18T21:29:46.588Z,5.40
2023-02-18T21:32:14.193Z,5.40
2023-02-18T21:34:41.659Z,5.40
2023-02-18T21:37:09.106Z,5.30
2023-02-18T21:39:36.568Z,5.40
2023-02-18T21:42:04.801Z,5.50
2023-02-18T21:44:41.882Z,5.50
2023-02-18T21:47:09.892Z,5.40
2023-02-18T21:49:37.271Z,6.00
2023-02-18T21:52:10.950Z,5.90
2023-02-18T21:54:40.925Z,5.80
2023-02-18T21:57:11.948Z,5.90
2023-02-18T21:59:40.337Z,6.00
2023-02-18T22:02:14.356Z,6.10
2023-02-18T22:04:41.849Z,6.10
2023-02-18T22:07:09.360Z,6.10
2023-02-18T22:09:37.073Z,6.40
2023-02-18T22:12:05.357Z,6.60
2023-02-18T22:14:33.036Z,6.60
2023-02-18T22:17:00.488Z,6.60
2023-02-18T22:19:27.987Z,6.60
2023-02-18T22:21:55.687Z,6.70
2023-02-18T22:24:23.105Z,6.80
2023-02-18T22:26:50.957Z,6.80
2023-02-18T22:29:19.793Z,6.80
2023-02-18T22:31:47.971Z,6.80
2023-02-18T22:34:16.477Z,6.80
2023-02-18T22:36:43.923Z,6.90
2023-02-18T22:39:13.141Z,6.90
2023-02-18T22:41:41.314Z,6.90
2023-02-18T22:44:15.323Z,7.00
2023-02-18T22:46:43.414Z,7.00
2023-02-18T22:49:12.133Z,7.00
2023-02-18T22:51:41.933Z,6.90
2023-02-18T22:54:16.969Z,6.90
2023-02-18T22:56:46.264Z,6.90
2023-02-18T22:59:15.507Z,7.00
2023-02-18T23:01:49.443Z,7.20
2023-02-18T23:04:19.158Z,7.30
2023-02-18T23:06:47.528Z,7.10
2023-02-18T23:09:17.635Z,7.20
2023-02-18T23:11:45.857Z,7.40
2023-02-18T23:14:19.340Z,7.50
2023-02-18T23:17:17.666Z,7.80
2023-02-18T23:19:51.052Z,7.90
2023-02-18T23:22:40.061Z,7.90
2023-02-18T23:25:08.004Z,7.80
2023-02-18T23:27:35.495Z,7.70
2023-02-18T23:30:03.162Z,7.90
2023-02-18T23:32:32.029Z,8.00
2023-02-18T23:34:59.407Z,8.00
2023-02-18T23:37:45.178Z,8.00
2023-02-18T23:40:14.738Z,8.20
2023-02-18T23:42:42.189Z,8.20
2023-02-18T23:45:09.776Z,8.10
2023-02-18T23:47:37.213Z,8.00
2023-02-18T23:50:04.867Z,8.20
2023-02-18T23:52:32.264Z,8.30
2023-02-18T23:54:59.654Z,8.50
2023-02-18T23:57:31.250Z,8.50
2023-02-18T23:59:58.740Z,8.60
